createdAt,value
2018-03-07T00:00:13.228Z,5.8
2018-03-07T00:01:03.022Z,5.8
2018-03-07T00:01:53.384Z,5.9
2018-03-07T00:02:43.389Z,5.9
2018-03-07T00:03:33.459Z,5.9
2018-03-07T00:04:23.538Z,5.9
2018-03-07T00:05:13.010Z,5.9
2018-03-07T00:06:03.682Z,5.9
2018-03-07T00:06:53.411Z,5.9
2018-03-07T00:07:43.501Z,5.9
2018-03-07T00:08:33.523Z,5.9
2018-03-07T00:09:23.324Z,5.9
2018-03-07T00:10:13.954Z,5.9
2018-03-07T00:11:04.001Z,5.9
2018-03-07T00:11:54.043Z,5.9
2018-03-07T00:12:43.843Z,5.9
2018-03-07T00:13:33.600Z,5.9
2018-03-07T00:14:24.183Z,6
2018-03-07T00:15:13.687Z,5.9
2018-03-07T00:16:04.325Z,5.9
2018-03-07T00:16:54.371Z,6
2018-03-07T00:17:44.451Z,6.1
2018-03-07T00:18:33.955Z,6.1
2018-03-07T00:19:23.984Z,6.1
2018-03-07T00:20:14.112Z,5.9
2018-03-07T00:21:04.676Z,5.9
2018-03-07T00:21:54.751Z,5.9
2018-03-07T00:22:44.798Z,5.9
2018-03-07T00:23:34.828Z,5.9
2018-03-07T00:24:24.614Z,5.9
2018-03-07T00:25:14.955Z,5.9
2018-03-07T00:26:05.023Z,5.9
2018-03-07T00:26:55.068Z,5.9
2018-03-07T00:27:44.583Z,5.9
2018-03-07T00:28:35.177Z,6
2018-03-07T00:29:25.254Z,6
2018-03-07T00:30:15.010Z,6
2018-03-07T00:31:05.345Z,6
2018-03-07T00:31:55.412Z,6
2018-03-07T00:32:44.910Z,6
2018-03-07T00:33:35.515Z,6
2018-03-07T00:34:24.765Z,5.9
2018-03-07T00:35:15.644Z,6
2018-03-07T00:36:05.409Z,6
2018-03-07T00:36:55.477Z,6.1
2018-03-07T00:37:45.798Z,6
2018-03-07T00:38:35.855Z,6.1
2018-03-07T00:39:25.768Z,6.1
2018-03-07T00:40:15.972Z,6.1
2018-03-07T00:41:05.017Z,6.1
2018-03-07T00:41:55.560Z,6
2018-03-07T00:42:45.666Z,6.1
2018-03-07T00:43:35.174Z,6.1
2018-03-07T00:44:25.318Z,6.1
2018-03-07T00:45:15.314Z,6.1
2018-03-07T00:46:05.421Z,6.1
2018-03-07T00:46:55.591Z,6
2018-03-07T00:47:45.729Z,5.9
2018-03-07T00:48:35.506Z,5.9
2018-03-07T00:49:25.964Z,5.9
2018-03-07T00:50:15.324Z,5.9
2018-03-07T00:51:05.684Z,5.9
2018-03-07T00:51:55.870Z,5.9
2018-03-07T00:52:46.106Z,5.8
2018-03-07T00:53:35.469Z,5.8
2018-03-07T00:54:26.014Z,5.9
2018-03-07T00:55:16.284Z,5.8
2018-03-07T00:56:06.584Z,5.9
2018-03-07T00:56:56.658Z,5.9
2018-03-07T00:57:46.444Z,5.9
2018-03-07T00:58:36.514Z,5.9
2018-03-07T00:59:26.825Z,5.9
2018-03-07T01:00:16.870Z,5.9
2018-03-07T01:01:06.933Z,5.9
2018-03-07T01:01:56.710Z,5.9
2018-03-07T01:02:46.781Z,5.9
2018-03-07T01:03:37.097Z,5.8
2018-03-07T01:04:27.207Z,5.8
2018-03-07T01:05:16.940Z,5.8
2018-03-07T01:06:07.290Z,5.8
2018-03-07T01:06:57.475Z,5.9
2018-03-07T01:07:47.097Z,5.8
2018-03-07T01:08:37.449Z,5.8
2018-03-07T01:09:27.445Z,5.8
2018-03-07T01:10:17.568Z,5.8
2018-03-07T01:11:07.339Z,5.8
2018-03-07T01:11:57.696Z,5.8
2018-03-07T01:12:47.935Z,5.8
2018-03-07T01:13:38.085Z,5.7
2018-03-07T01:14:28.084Z,5.7
2018-03-07T01:15:17.885Z,5.8
2018-03-07T01:16:08.155Z,5.8
2018-03-07T01:16:58.232Z,5.8
2018-03-07T01:17:47.520Z,5.7
2018-03-07T01:18:38.650Z,5.7
2018-03-07T01:19:28.482Z,5.7
2018-03-07T01:20:18.729Z,5.7
2018-03-07T01:21:08.513Z,5.7
2018-03-07T01:21:58.577Z,5.8
2018-03-07T01:22:48.612Z,5.8
2018-03-07T01:23:38.676Z,5.8
2018-03-07T01:24:29.067Z,5.8
2018-03-07T01:25:18.844Z,5.8
2018-03-07T01:26:08.869Z,5.8
2018-03-07T01:26:59.217Z,5.8
2018-03-07T01:27:47.817Z,5.8
2018-03-07T01:28:39.026Z,5.8
2018-03-07T01:29:28.519Z,5.8
2018-03-07T01:30:19.129Z,5.8
2018-03-07T01:31:08.931Z,5.8
2018-03-07T01:31:59.525Z,5.8
2018-03-07T01:32:49.306Z,5.7
2018-03-07T01:33:39.636Z,5.7
2018-03-07T01:34:29.423Z,5.7
2018-03-07T01:35:19.529Z,5.7
2018-03-07T01:36:09.833Z,5.6
2018-03-07T01:36:59.610Z,5.6
2018-03-07T01:37:49.965Z,5.6
2018-03-07T01:38:40.020Z,5.6
2018-03-07T01:39:29.771Z,5.6
2018-03-07T01:40:19.829Z,5.6
2018-03-07T01:41:09.878Z,5.6
2018-03-07T01:41:59.958Z,5.6
2018-03-07T01:42:49.719Z,5.6
2018-03-07T01:43:39.776Z,5.6
2018-03-07T01:44:30.396Z,5.5
2018-03-07T01:45:20.179Z,5.6
2018-03-07T01:46:10.533Z,5.6
2018-03-07T01:47:00.293Z,5.6
2018-03-07T01:47:50.400Z,5.5
2018-03-07T01:48:40.692Z,5.6
2018-03-07T01:49:30.475Z,5.6
2018-03-07T01:50:20.815Z,5.5
2018-03-07T01:51:10.592Z,5.6
2018-03-07T01:52:00.914Z,5.6
2018-03-07T01:52:50.677Z,5.6
2018-03-07T01:53:40.485Z,5.5
2018-03-07T01:54:30.810Z,5.5
2018-03-07T01:55:21.145Z,5.4
2018-03-07T01:56:10.915Z,5.4
2018-03-07T01:57:00.690Z,5.4
2018-03-07T01:57:51.316Z,5.4
2018-03-07T01:58:41.368Z,5.3
2018-03-07T01:59:31.162Z,5.3
2018-03-07T02:00:21.484Z,5.3
2018-03-07T02:01:11.540Z,5.3
2018-03-07T02:02:01.315Z,5.4
2018-03-07T02:02:51.393Z,5.4
2018-03-07T02:03:41.737Z,5.3
2018-03-07T02:04:31.500Z,5.4
2018-03-07T02:05:21.532Z,5.3
2018-03-07T02:06:11.640Z,5.4
2018-03-07T02:07:01.387Z,5.3
2018-03-07T02:07:51.454Z,5.3
2018-03-07T02:08:41.802Z,5.3
2018-03-07T02:09:32.137Z,5.1
2018-03-07T02:10:21.920Z,5.1
2018-03-07T02:11:11.966Z,5.2
2018-03-07T02:12:02.003Z,5.2
2018-03-07T02:12:51.301Z,5.2
2018-03-07T02:13:42.141Z,5.2
2018-03-07T02:14:32.097Z,5.2
2018-03-07T02:15:21.781Z,5.2
2018-03-07T02:16:12.014Z,5.1
2018-03-07T02:17:01.897Z,5.1
2018-03-07T02:17:51.953Z,5.1
2018-03-07T02:18:42.477Z,5.1
2018-03-07T02:19:32.040Z,5.1
2018-03-07T02:20:22.018Z,5.1
2018-03-07T02:21:12.063Z,5.1
2018-03-07T02:22:02.728Z,5.2
2018-03-07T02:22:52.282Z,5.2
2018-03-07T02:23:41.843Z,5.2
2018-03-07T02:24:32.316Z,5.2
2018-03-07T02:25:22.450Z,5.1
2018-03-07T02:26:12.505Z,5.1
2018-03-07T02:27:02.479Z,5.1
2018-03-07T02:27:52.846Z,5
2018-03-07T02:28:42.485Z,5.1
2018-03-07T02:29:32.621Z,5.1
2018-03-07T02:30:22.812Z,5.1
2018-03-07T02:31:13.355Z,5
2018-03-07T02:32:03.122Z,5.1
2018-03-07T02:32:53.187Z,5.1
2018-03-07T02:33:43.033Z,5
2018-03-07T02:34:33.013Z,5
2018-03-07T02:35:23.635Z,4.9
2018-03-07T02:36:13.497Z,4.9
2018-03-07T02:37:03.499Z,4.9
2018-03-07T02:37:53.336Z,4.9
2018-03-07T02:38:42.882Z,4.9
2018-03-07T02:39:33.717Z,4.9
2018-03-07T02:40:23.514Z,4.8
2018-03-07T02:41:13.549Z,4.8
2018-03-07T02:42:03.031Z,4.8
2018-03-07T02:42:53.465Z,4.8
2018-03-07T02:43:44.308Z,4.8
2018-03-07T02:44:33.292Z,4.8
2018-03-07T02:45:24.350Z,4.8
2018-03-07T02:46:14.122Z,4.8
2018-03-07T02:47:04.180Z,4.8
2018-03-07T02:47:54.482Z,4.7
2018-03-07T02:48:44.548Z,4.7
2018-03-07T02:49:34.607Z,4.7
2018-03-07T02:50:24.945Z,4.6
2018-03-07T02:51:15.010Z,4.6
2018-03-07T02:52:05.080Z,4.6
2018-03-07T02:52:54.840Z,4.6
2018-03-07T02:53:44.876Z,4.6
2018-03-07T02:54:35.234Z,4.6
2018-03-07T02:55:25.082Z,4.6
2018-03-07T02:56:15.071Z,4.6
2018-03-07T02:57:04.831Z,4.6
2018-03-07T02:57:54.620Z,4.6
2018-03-07T02:58:45.221Z,4.5
2018-03-07T02:59:35.549Z,4.4
2018-03-07T03:00:25.353Z,4.4
2018-03-07T03:01:15.679Z,4.4
2018-03-07T03:02:05.740Z,4.3
2018-03-07T03:02:55.540Z,4.3
2018-03-07T03:03:45.613Z,4.3
2018-03-07T03:04:35.920Z,4.3
2018-03-07T03:05:25.997Z,4.3
2018-03-07T03:06:15.476Z,4.3
2018-03-07T03:07:05.526Z,4.3
2018-03-07T03:07:55.871Z,4.3
2018-03-07T03:08:45.678Z,4.3
2018-03-07T03:09:36.228Z,4.3
2018-03-07T03:10:26.020Z,4.2
2018-03-07T03:11:16.083Z,4.2
2018-03-07T03:12:06.136Z,4.2
2018-03-07T03:12:56.199Z,4.2
2018-03-07T03:13:45.976Z,4.2
2018-03-07T03:14:36.604Z,4.1
2018-03-07T03:15:26.373Z,4.1
2018-03-07T03:16:16.725Z,4.1
2018-03-07T03:17:06.753Z,4.1
2018-03-07T03:17:56.529Z,4
2018-03-07T03:18:46.924Z,4
2018-03-07T03:19:36.932Z,4
2018-03-07T03:20:26.710Z,4
2018-03-07T03:21:17.025Z,4
2018-03-07T03:22:07.095Z,4.1
2018-03-07T03:22:56.880Z,4.1
2018-03-07T03:23:46.953Z,4.1
2018-03-07T03:24:37.014Z,4
2018-03-07T03:25:27.313Z,3.9
2018-03-07T03:26:17.124Z,3.9
2018-03-07T03:27:07.698Z,3.9
2018-03-07T03:27:56.939Z,3.8
2018-03-07T03:28:47.320Z,3.8
2018-03-07T03:29:37.632Z,3.8
2018-03-07T03:30:27.139Z,3.7
2018-03-07T03:31:17.190Z,3.8
2018-03-07T03:32:07.238Z,3.8
2018-03-07T03:32:57.624Z,3.7
2018-03-07T03:33:47.344Z,3.7
2018-03-07T03:34:37.679Z,3.7
2018-03-07T03:35:28.044Z,3.8
2018-03-07T03:36:17.538Z,3.8
2018-03-07T03:37:07.281Z,3.7
2018-03-07T03:37:57.944Z,3.6
2018-03-07T03:38:47.706Z,3.6
2018-03-07T03:39:37.784Z,3.6
2018-03-07T03:40:28.128Z,3.6
2018-03-07T03:41:17.377Z,3.5
2018-03-07T03:42:08.212Z,3.4
2018-03-07T03:42:58.263Z,3.4
2018-03-07T03:43:48.328Z,3.4
2018-03-07T03:44:38.649Z,3.3
2018-03-07T03:45:28.466Z,3.4
2018-03-07T03:46:18.492Z,3.5
2018-03-07T03:47:08.820Z,3.5
2018-03-07T03:47:58.884Z,3.5
2018-03-07T03:48:48.699Z,3.5
2018-03-07T03:49:38.453Z,3.6
2018-03-07T03:50:28.500Z,3.6
2018-03-07T03:51:19.091Z,3.6
2018-03-07T03:52:08.888Z,3.5
2018-03-07T03:52:59.221Z,3.5
2018-03-07T03:53:49.296Z,3.5
2018-03-07T03:54:39.308Z,3.6
2018-03-07T03:55:29.386Z,3.6
2018-03-07T03:56:19.161Z,3.6
2018-03-07T03:57:09.225Z,3.6
2018-03-07T03:57:59.568Z,3.4
2018-03-07T03:58:49.328Z,3.4
2018-03-07T03:59:39.387Z,3.4
2018-03-07T04:00:29.460Z,3.4
2018-03-07T04:01:19.553Z,3.4
2018-03-07T04:02:09.280Z,3.4
2018-03-07T04:02:59.123Z,3.4
2018-03-07T04:03:49.949Z,3.4
2018-03-07T04:04:40.010Z,3.4
2018-03-07T04:05:29.536Z,3.6
2018-03-07T04:06:20.173Z,3.6
2018-03-07T04:07:09.913Z,3.6
2018-03-07T04:07:59.674Z,3.5
2018-03-07T04:08:50.055Z,3.5
2018-03-07T04:09:40.345Z,3.5
2018-03-07T04:10:30.457Z,3.5
2018-03-07T04:11:20.483Z,3.5
2018-03-07T04:12:10.530Z,3.5
2018-03-07T04:13:00.318Z,3.5
2018-03-07T04:13:50.089Z,3.6
2018-03-07T04:14:40.722Z,3.6
2018-03-07T04:15:30.197Z,3.7
2018-03-07T04:16:20.582Z,3.8
2018-03-07T04:17:10.625Z,3.8
2018-03-07T04:18:00.924Z,3.8
2018-03-07T04:18:50.704Z,3.9
2018-03-07T04:19:40.776Z,3.9
2018-03-07T04:20:31.104Z,3.9
2018-03-07T04:21:21.183Z,3.9
2018-03-07T04:22:10.670Z,3.9
2018-03-07T04:23:01.008Z,3.8
2018-03-07T04:23:50.786Z,3.8
2018-03-07T04:24:41.122Z,3.7
2018-03-07T04:25:31.565Z,3.7
2018-03-07T04:26:21.229Z,3.6
2018-03-07T04:27:11.308Z,3.6
2018-03-07T04:28:01.666Z,3.6
2018-03-07T04:28:51.129Z,3.5
2018-03-07T04:29:41.475Z,3.6
2018-03-07T04:30:31.504Z,3.5
2018-03-07T04:31:21.831Z,3.5
2018-03-07T04:32:11.886Z,3.4
2018-03-07T04:33:01.694Z,3.4
2018-03-07T04:33:51.449Z,3.4
2018-03-07T04:34:41.538Z,3.5
2018-03-07T04:35:31.845Z,3.5
2018-03-07T04:36:22.223Z,3.6
2018-03-07T04:37:12.253Z,3.6
2018-03-07T04:38:02.028Z,3.6
2018-03-07T04:38:52.086Z,3.6
2018-03-07T04:39:42.450Z,3.9
2018-03-07T04:40:31.929Z,4.1
2018-03-07T04:41:22.247Z,4.1
2018-03-07T04:42:12.609Z,4.3
2018-03-07T04:43:02.673Z,4.6
2018-03-07T04:43:52.700Z,4.8
2018-03-07T04:44:42.508Z,4.7
2018-03-07T04:45:32.095Z,4.8
2018-03-07T04:46:22.617Z,4.6
2018-03-07T04:47:12.930Z,4.4
2018-03-07T04:48:02.722Z,4.4
2018-03-07T04:48:52.792Z,4.4
2018-03-07T04:49:42.820Z,4.5
2018-03-07T04:50:32.893Z,4.6
2018-03-07T04:51:23.245Z,5.4
2018-03-07T04:52:12.560Z,5.5
2018-03-07T04:53:02.827Z,5.6
2018-03-07T04:53:53.446Z,6.1
2018-03-07T04:54:42.622Z,6.6
2018-03-07T04:55:32.268Z,85
2018-03-07T04:56:23.025Z,7.3
2018-03-07T04:57:13.662Z,7.7
2018-03-07T04:58:03.707Z,8.4
2018-03-07T04:58:53.732Z,8.6
2018-03-07T04:59:43.242Z,8.6
2018-03-07T05:00:33.847Z,8.8
2018-03-07T05:01:23.969Z,8.9
2018-03-07T05:02:13.396Z,9.3
2018-03-07T05:03:04.022Z,9.5
2018-03-07T05:03:54.060Z,9.5
2018-03-07T05:04:44.137Z,9.8
2018-03-07T05:05:33.624Z,9.8
2018-03-07T05:06:23.689Z,9.7
2018-03-07T05:07:14.302Z,9.7
2018-03-07T05:08:04.124Z,9.6
2018-03-07T05:08:54.126Z,9.6
2018-03-07T05:09:44.209Z,9.6
2018-03-07T05:10:34.443Z,9.8
2018-03-07T05:11:24.321Z,9.7
2018-03-07T05:12:14.665Z,9.8
2018-03-07T05:13:04.131Z,9.8
2018-03-07T05:13:53.911Z,9.8
2018-03-07T05:14:44.560Z,9.9
2018-03-07T05:15:34.853Z,9.9
2018-03-07T05:16:24.938Z,9.9
2018-03-07T05:17:15.003Z,9.9
2018-03-07T05:18:04.835Z,9.9
2018-03-07T05:18:55.092Z,9.7
2018-03-07T05:19:45.146Z,9.7
2018-03-07T05:20:35.281Z,9.9
2018-03-07T05:21:25.332Z,10.2
2018-03-07T05:22:15.082Z,10.1
2018-03-07T05:23:05.413Z,10.2
2018-03-07T05:23:54.876Z,10.1
2018-03-07T05:24:45.251Z,10
2018-03-07T05:25:35.559Z,10.1
2018-03-07T05:26:25.057Z,10.3
2018-03-07T05:27:15.410Z,10.3
2018-03-07T05:28:05.459Z,10.4
2018-03-07T05:28:55.812Z,10.5
2018-03-07T05:29:45.565Z,10.4
2018-03-07T05:30:35.609Z,10.4
2018-03-07T05:31:25.714Z,10.5
2018-03-07T05:32:15.751Z,10.4
2018-03-07T05:33:06.053Z,10.4
2018-03-07T05:33:55.567Z,10.4
2018-03-07T05:34:46.201Z,10.4
2018-03-07T05:35:36.328Z,10.3
2018-03-07T05:36:26.301Z,10.4
2018-03-07T05:37:16.376Z,10.6
2018-03-07T05:38:06.429Z,10.5
2018-03-07T05:38:56.473Z,10.5
2018-03-07T05:39:46.260Z,10.5
2018-03-07T05:40:36.296Z,10.6
2018-03-07T05:41:26.646Z,10.6
2018-03-07T05:42:16.687Z,10.6
2018-03-07T05:43:06.579Z,10.6
2018-03-07T05:43:56.265Z,10.8
2018-03-07T05:44:46.581Z,10.7
2018-03-07T05:45:36.366Z,10.8
2018-03-07T05:46:26.983Z,10.9
2018-03-07T05:47:16.779Z,10.9
2018-03-07T05:48:07.081Z,10.8
2018-03-07T05:48:56.887Z,10.9
2018-03-07T05:49:47.231Z,10.9
2018-03-07T05:50:37.005Z,10.8
2018-03-07T05:51:27.018Z,10.8
2018-03-07T05:52:17.123Z,10.9
2018-03-07T05:53:07.216Z,10.9
2018-03-07T05:53:57.489Z,10.9
2018-03-07T05:54:47.010Z,11
2018-03-07T05:55:36.765Z,10.9
2018-03-07T05:56:27.416Z,11
2018-03-07T05:57:16.955Z,11.1
2018-03-07T05:58:07.765Z,11
2018-03-07T05:58:57.832Z,11
2018-03-07T05:59:47.640Z,11
2018-03-07T06:00:37.952Z,11
2018-03-07T06:01:27.537Z,11.1
2018-03-07T06:02:17.519Z,11.1
2018-03-07T06:03:08.149Z,11.1
2018-03-07T06:03:57.894Z,11.1
2018-03-07T06:04:47.942Z,11
2018-03-07T06:05:37.735Z,11.1
2018-03-07T06:06:27.777Z,11.1
2018-03-07T06:07:17.850Z,11.1
2018-03-07T06:08:07.903Z,11.1
2018-03-07T06:08:58.526Z,11.1
2018-03-07T06:09:48.281Z,11.1
2018-03-07T06:10:37.792Z,11.1
2018-03-07T06:11:28.415Z,11.1
2018-03-07T06:12:18.505Z,11.1
2018-03-07T06:13:07.951Z,11.2
2018-03-07T06:13:58.886Z,11.3
2018-03-07T06:14:48.632Z,11.3
2018-03-07T06:15:38.982Z,11.3
2018-03-07T06:16:28.764Z,11.3
2018-03-07T06:17:18.861Z,11.3
2018-03-07T06:18:09.136Z,11.3
2018-03-07T06:18:58.920Z,11.4
2018-03-07T06:19:48.984Z,11.4
2018-03-07T06:20:39.329Z,11.3
2018-03-07T06:21:28.934Z,11.4
2018-03-07T06:22:18.688Z,11.4
2018-03-07T06:23:09.045Z,11.4
2018-03-07T06:23:59.074Z,11.4
2018-03-07T06:24:48.826Z,11.4
2018-03-07T06:25:38.906Z,11.5
2018-03-07T06:26:29.221Z,11.4
2018-03-07T06:27:19.542Z,11.5
2018-03-07T06:28:09.063Z,11.5
2018-03-07T06:28:59.901Z,11.4
2018-03-07T06:29:49.672Z,11.4
2018-03-07T06:30:40.018Z,11.5
2018-03-07T06:31:29.855Z,11.5
2018-03-07T06:32:19.848Z,11.6
2018-03-07T06:33:10.200Z,11.6
2018-03-07T06:33:59.973Z,11.6
2018-03-07T06:34:50.014Z,11.6
2018-03-07T06:35:40.101Z,11.6
2018-03-07T06:36:30.185Z,11.6
2018-03-07T06:37:20.174Z,11.6
2018-03-07T06:38:09.670Z,11.6
2018-03-07T06:39:00.310Z,11.6
2018-03-07T06:39:49.600Z,11.7
2018-03-07T06:40:40.720Z,11.7
2018-03-07T06:41:30.222Z,11.7
2018-03-07T06:42:19.974Z,11.7
2018-03-07T06:43:09.419Z,11.8
2018-03-07T06:43:59.985Z,11.9
2018-03-07T06:44:49.870Z,11.9
2018-03-07T06:45:39.327Z,11.9
2018-03-07T06:46:30.124Z,11.9
2018-03-07T06:47:20.409Z,11.9
2018-03-07T06:48:09.882Z,12
2018-03-07T06:49:00.040Z,12
2018-03-07T06:49:50.097Z,12.1
2018-03-07T06:50:40.343Z,12.1
2018-03-07T06:51:30.892Z,12.2
2018-03-07T06:52:20.162Z,12.1
2018-03-07T06:53:11.574Z,12.1
2018-03-07T06:54:00.584Z,12.1
2018-03-07T06:54:51.116Z,12.1
2018-03-07T06:55:41.449Z,12.2
2018-03-07T06:56:30.740Z,12.1
2018-03-07T06:57:20.681Z,12.3
2018-03-07T06:58:11.649Z,12.3
2018-03-07T06:59:01.138Z,12.3
2018-03-07T06:59:52.022Z,12.2
2018-03-07T07:00:42.074Z,12.2
2018-03-07T07:01:31.870Z,12.4
2018-03-07T07:02:21.939Z,12.4
2018-03-07T07:03:12.272Z,12.4
2018-03-07T07:04:01.818Z,12.4
2018-03-07T07:04:52.359Z,12.5
2018-03-07T07:05:42.424Z,12.7
2018-03-07T07:06:32.509Z,12.9
2018-03-07T07:07:22.270Z,12.9
2018-03-07T07:08:12.356Z,12.9
2018-03-07T07:09:02.111Z,12.9
2018-03-07T07:09:52.166Z,12.8
2018-03-07T07:10:42.771Z,12.9
2018-03-07T07:11:32.891Z,12.9
2018-03-07T07:12:22.916Z,12.8
2018-03-07T07:13:12.701Z,12.9
2018-03-07T07:14:03.005Z,12.9
2018-03-07T07:14:51.730Z,12.9
2018-03-07T07:15:42.379Z,12.9
2018-03-07T07:16:32.131Z,13.1
2018-03-07T07:17:22.203Z,13.4
2018-03-07T07:18:13.053Z,13.2
2018-03-07T07:19:02.119Z,13.1
2018-03-07T07:19:52.576Z,13
2018-03-07T07:20:42.890Z,13.1
2018-03-07T07:21:33.009Z,13.1
2018-03-07T07:22:22.736Z,13.2
2018-03-07T07:23:13.185Z,13.1
2018-03-07T07:24:03.430Z,13.1
2018-03-07T07:24:53.017Z,13.3
2018-03-07T07:25:42.590Z,13.1
2018-03-07T07:26:33.601Z,13
2018-03-07T07:27:23.772Z,13.1
2018-03-07T07:28:14.025Z,13.1
2018-03-07T07:29:04.050Z,13
2018-03-07T07:29:53.547Z,13.1
2018-03-07T07:30:43.896Z,13
2018-03-07T07:31:34.215Z,13.2
2018-03-07T07:32:23.996Z,13.4
2018-03-07T07:33:13.559Z,13.5
2018-03-07T07:34:03.682Z,13.6
2018-03-07T07:34:53.634Z,13.5
2018-03-07T07:35:43.662Z,13.4
2018-03-07T07:36:33.820Z,13.5
2018-03-07T07:37:24.163Z,13.6
2018-03-07T07:38:14.457Z,13.7
2018-03-07T07:39:04.219Z,13.8
2018-03-07T07:39:54.284Z,13.6
2018-03-07T07:40:44.310Z,13.5
2018-03-07T07:41:34.957Z,13.5
2018-03-07T07:42:24.714Z,13.6
2018-03-07T07:43:15.098Z,13.5
2018-03-07T07:44:05.150Z,13.4
2018-03-07T07:44:54.875Z,13.4
2018-03-07T07:45:44.964Z,13.4
2018-03-07T07:46:35.290Z,13.4
2018-03-07T07:47:25.545Z,13.3
2018-03-07T07:48:15.388Z,13.3
2018-03-07T07:49:04.925Z,13.3
2018-03-07T07:49:55.234Z,13.2
2018-03-07T07:50:45.241Z,13.3
2018-03-07T07:51:35.342Z,13.3
2018-03-07T07:52:25.677Z,13.4
2018-03-07T07:53:15.507Z,13.4
2018-03-07T07:55:23.784Z,13.6
2018-03-07T07:56:24.693Z,13.6
2018-03-07T07:57:15.014Z,13.8
2018-03-07T07:58:05.068Z,13.8
2018-03-07T07:58:55.396Z,13.8
2018-03-07T07:59:45.471Z,13.8
2018-03-07T08:00:35.520Z,13.8
2018-03-07T08:01:24.553Z,13.6
2018-03-07T08:02:14.316Z,13.4
2018-03-07T08:03:05.443Z,13.5
2018-03-07T08:03:55.309Z,13.6
2018-03-07T08:05:09.248Z,13.8
2018-03-07T08:05:59.521Z,13.8
2018-03-07T08:06:49.631Z,13.7
2018-03-07T08:07:38.925Z,13.8
2018-03-07T08:08:41.912Z,14.1
2018-03-07T08:09:20.135Z,13.9
2018-03-07T08:10:09.426Z,13.9
2018-03-07T08:11:00.033Z,14
2018-03-07T08:13:30.839Z,13.9
2018-03-07T08:14:20.932Z,13.9
2018-03-07T08:15:10.413Z,14.1
2018-03-07T08:16:51.670Z,13.9
2018-03-07T08:17:41.595Z,13.9
2018-03-07T08:18:31.629Z,13.9
2018-03-07T08:19:21.982Z,13.9
2018-03-07T08:20:12.093Z,14
2018-03-07T08:21:01.524Z,14.1
2018-03-07T08:21:51.882Z,14.1
2018-03-07T08:22:42.239Z,14.1
2018-03-07T08:23:31.995Z,14.2
2018-03-07T08:24:22.337Z,14.3
2018-03-07T08:25:12.123Z,14.3
2018-03-07T08:26:02.462Z,14.2
2018-03-07T08:26:52.549Z,14
2018-03-07T08:27:42.610Z,13.8
2018-03-07T08:28:32.667Z,13.9
2018-03-07T08:29:22.702Z,14
2018-03-07T08:30:12.750Z,14.1
2018-03-07T08:31:02.811Z,14.3
2018-03-07T08:31:52.861Z,14.6
2018-03-07T08:32:42.665Z,14.7
2018-03-07T08:33:32.974Z,14.3
2018-03-07T08:34:22.769Z,14.3
2018-03-07T08:35:13.110Z,14.6
2018-03-07T08:36:03.180Z,14.3
2018-03-07T08:36:53.201Z,14.3
2018-03-07T08:37:42.993Z,14.6
2018-03-07T08:38:33.058Z,14.5
2018-03-07T08:39:23.384Z,14.4
2018-03-07T08:40:13.441Z,14.4
2018-03-07T08:41:02.949Z,14.7
2018-03-07T08:41:53.568Z,14.8
2018-03-07T08:42:43.342Z,14.9
2018-03-07T08:43:33.690Z,14.9
2018-03-07T08:44:23.457Z,15
2018-03-07T08:45:13.498Z,14.6
2018-03-07T08:46:04.306Z,14.4
2018-03-07T08:46:53.910Z,14.4
2018-03-07T08:47:43.998Z,14.6
2018-03-07T08:48:34.033Z,14.3
2018-03-07T08:49:24.076Z,14.3
2018-03-07T08:50:14.163Z,14.2
2018-03-07T08:51:04.179Z,14.3
2018-03-07T08:51:54.264Z,14.4
2018-03-07T08:52:44.030Z,14.6
2018-03-07T08:53:34.378Z,14.8
2018-03-07T08:54:23.889Z,14.9
2018-03-07T08:55:14.504Z,14.9
2018-03-07T08:56:04.571Z,15
2018-03-07T08:56:54.040Z,15.1
2018-03-07T08:57:44.647Z,14.9
2018-03-07T08:58:34.729Z,14.8
2018-03-07T08:59:23.918Z,14.6
2018-03-07T09:00:14.546Z,14.5
2018-03-07T09:01:04.620Z,14.4
2018-03-07T09:01:54.690Z,14.6
2018-03-07T09:02:44.764Z,14.4
2018-03-07T09:03:34.219Z,14.5
2018-03-07T09:04:24.768Z,14.7
2018-03-07T09:05:14.908Z,15.1
2018-03-07T09:06:04.708Z,15.4
2018-03-07T09:06:55.325Z,15.2
2018-03-07T09:07:44.819Z,15
2018-03-07T09:08:35.414Z,14.8
2018-03-07T09:09:25.185Z,14.8
2018-03-07T09:10:15.593Z,14.7
2018-03-07T09:11:05.597Z,14.9
2018-03-07T09:11:55.362Z,14.8
2018-03-07T09:12:45.152Z,14.9
2018-03-07T09:13:35.794Z,15.1
2018-03-07T09:14:25.539Z,15
2018-03-07T09:15:15.915Z,15.2
2018-03-07T09:16:05.692Z,15.4
2018-03-07T09:16:55.992Z,15.7
2018-03-07T09:17:46.069Z,16
2018-03-07T09:18:35.847Z,16
2018-03-07T09:19:25.324Z,15.9
2018-03-07T09:20:16.284Z,16.1
2018-03-07T09:21:06.329Z,16.6
2018-03-07T09:21:56.359Z,16.5
2018-03-07T09:22:46.399Z,16.2
2018-03-07T09:23:36.209Z,16.1
2018-03-07T09:24:26.597Z,15.9
2018-03-07T09:25:16.308Z,15.8
2018-03-07T09:26:06.378Z,15.5
2018-03-07T09:26:56.721Z,15.5
2018-03-07T09:27:46.772Z,15.4
2018-03-07T09:28:36.570Z,15.4
2018-03-07T09:29:26.876Z,15.5
2018-03-07T09:30:16.380Z,15.9
2018-03-07T09:31:06.416Z,15.9
2018-03-07T09:31:57.093Z,16.3
2018-03-07T09:32:47.136Z,16.2
2018-03-07T09:33:36.328Z,15.9
2018-03-07T09:34:26.791Z,15.6
2018-03-07T09:35:17.281Z,15.6
2018-03-07T09:36:06.588Z,16
2018-03-07T09:36:56.838Z,15.6
2018-03-07T09:37:47.460Z,15.6
2018-03-07T09:38:37.247Z,15.6
2018-03-07T09:39:27.595Z,15.3
2018-03-07T09:40:17.643Z,15.6
2018-03-07T09:41:07.423Z,15.8
2018-03-07T09:41:57.500Z,15.5
2018-03-07T09:42:47.819Z,15.9
2018-03-07T09:43:37.870Z,15.6
2018-03-07T09:44:27.960Z,15.4
2018-03-07T09:45:17.435Z,15.6
2018-03-07T09:46:08.020Z,15.8
2018-03-07T09:46:57.812Z,15.4
2018-03-07T09:47:47.668Z,15.4
2018-03-07T09:48:37.735Z,15.4
2018-03-07T09:49:27.796Z,15.3
2018-03-07T09:50:17.380Z,15.6
2018-03-07T09:51:07.839Z,15.4
2018-03-07T09:51:57.392Z,15.6
2018-03-07T09:52:47.069Z,15.6
2018-03-07T09:53:37.509Z,15.6
2018-03-07T09:54:28.158Z,15.5
2018-03-07T09:55:17.645Z,15.5
2018-03-07T09:56:08.415Z,15.7
2018-03-07T09:56:57.690Z,16.1
2018-03-07T09:57:47.536Z,16.1
2018-03-07T09:58:38.247Z,15.8
2018-03-07T09:59:28.248Z,15.6
2018-03-07T10:00:17.419Z,15.4
2018-03-07T10:01:07.874Z,15.6
2018-03-07T10:01:58.628Z,15.6
2018-03-07T10:02:47.976Z,16
2018-03-07T10:03:38.206Z,16.3
2018-03-07T10:04:28.117Z,16.4
2018-03-07T10:05:18.333Z,16.1
2018-03-07T10:06:08.729Z,15.9
2018-03-07T10:06:58.947Z,16.1
2018-03-07T10:07:48.817Z,16.3
2018-03-07T10:08:39.117Z,15.9
2018-03-07T10:09:29.200Z,16.1
2018-03-07T10:10:19.019Z,16.3
2018-03-07T10:11:08.757Z,16.3
2018-03-07T10:11:59.904Z,16.7
2018-03-07T10:12:49.159Z,16.1
2018-03-07T10:13:39.472Z,16
2018-03-07T10:14:29.259Z,16.3
2018-03-07T10:15:19.365Z,16.4
2018-03-07T10:17:42.820Z,16.2
2018-03-07T10:17:54.756Z,16.4
2018-03-07T10:18:44.453Z,16.6
2018-03-07T10:19:34.523Z,16.8
2018-03-07T10:20:24.592Z,16.5
2018-03-07T10:21:14.359Z,16.1
2018-03-07T10:22:05.187Z,16.2
2018-03-07T10:22:55.266Z,16.4
2018-03-07T10:23:45.302Z,16.1
2018-03-07T10:24:34.798Z,16.3
2018-03-07T10:25:25.428Z,15.8
2018-03-07T10:26:15.518Z,16
2018-03-07T10:27:05.554Z,16.3
2018-03-07T10:27:55.625Z,16.6
2018-03-07T10:28:45.659Z,16.8
2018-03-07T10:29:35.724Z,16.8
2018-03-07T10:31:15.883Z,17.1
2018-03-07T10:32:05.605Z,16.6
2018-03-07T10:32:55.672Z,16.5
2018-03-07T10:33:46.020Z,16.9
2018-03-07T10:34:36.081Z,16.8
2018-03-07T10:35:25.863Z,16.4
2018-03-07T10:36:15.615Z,16.1
2018-03-07T10:37:06.249Z,16.5
2018-03-07T10:38:46.085Z,17.1
2018-03-07T10:39:36.508Z,16.6
2018-03-07T10:40:26.493Z,16.6
2018-03-07T10:41:16.557Z,16.2
2018-03-07T10:42:06.600Z,16.1
2018-03-07T10:42:56.661Z,16
2018-03-07T10:43:46.424Z,16.3
2018-03-07T10:44:36.792Z,16.4
2018-03-07T10:45:26.830Z,16.6
2018-03-07T10:46:16.894Z,16.4
2018-03-07T10:47:06.774Z,16.8
2018-03-07T10:47:56.749Z,17.3
2018-03-07T10:48:47.079Z,16.7
2018-03-07T10:49:37.146Z,16.8
2018-03-07T10:50:26.336Z,16.5
2018-03-07T10:51:17.276Z,16.6
2018-03-07T10:52:06.734Z,16.6
2018-03-07T10:52:56.699Z,16.8
2018-03-07T10:53:47.448Z,17.3
2018-03-07T10:54:37.007Z,17.3
2018-03-07T10:55:27.066Z,16.9
2018-03-07T10:56:16.740Z,16.6
2018-03-07T10:57:07.091Z,16.6
2018-03-07T10:57:56.957Z,16.7
2018-03-07T10:58:47.786Z,16.7
2018-03-07T10:59:37.814Z,16.9
2018-03-07T11:00:27.883Z,16.5
2018-03-07T11:01:17.956Z,16.4
2018-03-07T11:02:07.539Z,16.5
2018-03-07T11:02:57.578Z,16.3
2018-03-07T11:03:48.125Z,16.9
2018-03-07T11:04:38.188Z,17.4
2018-03-07T11:05:28.243Z,16.9
2018-03-07T11:06:18.315Z,16.4
2018-03-07T11:07:08.358Z,16.8
2018-03-07T11:07:58.447Z,16.8
2018-03-07T11:08:48.497Z,16.6
2018-03-07T11:09:37.953Z,16.5
2018-03-07T11:10:31.642Z,16.4
2018-03-07T11:11:18.365Z,16.3
2018-03-07T11:12:08.702Z,16.1
2018-03-07T11:12:58.485Z,15.8
2018-03-07T11:13:48.840Z,15.7
2018-03-07T11:14:38.708Z,15.6
2018-03-07T11:15:28.673Z,15.7
2018-03-07T11:16:19.020Z,15.9
2018-03-07T11:17:09.065Z,15.7
2018-03-07T11:17:58.820Z,15.5
2018-03-07T11:18:48.723Z,15.7
2018-03-07T11:19:38.975Z,15.8
2018-03-07T11:20:28.310Z,16.2
2018-03-07T20:32:55.020Z,7.2
2018-03-07T20:33:45.307Z,7.1
2018-03-07T20:34:35.625Z,7.1
2018-03-07T20:35:25.420Z,7
2018-03-07T20:36:15.498Z,6.9
2018-03-07T20:37:05.244Z,6.9
2018-03-07T20:37:55.932Z,6.9
2018-03-07T20:38:45.922Z,6.9